createdAt,value
2018-11-06T00:00:46.522Z,97462.08
2018-11-06T00:03:20.135Z,97467.78
2018-11-06T00:05:48.391Z,97468.45
2018-11-06T00:08:16.561Z,97464.50
2018-11-06T00:10:44.826Z,97467.98
2018-11-06T00:13:13.012Z,97462.90
2018-11-06T00:15:41.294Z,97461.88
2018-11-06T00:18:09.497Z,97465.16
2018-11-06T00:20:37.743Z,97458.47
2018-11-06T00:23:06.210Z,97461.61
2018-11-06T00:25:34.491Z,97455.91
2018-11-06T00:28:02.674Z,97455.91
2018-11-06T00:30:30.836Z,97452.63
2018-11-06T00:32:59.017Z,97461.77
2018-11-06T00:35:27.273Z,97458.93
2018-11-06T00:37:55.469Z,97460.05
2018-11-06T00:40:23.737Z,97448.74
2018-11-06T00:42:51.925Z,97459.11
2018-11-06T00:45:20.425Z,97460.11
2018-11-06T00:47:48.736Z,97462.16
2018-11-06T00:50:16.924Z,97456.51
2018-11-06T00:52:45.295Z,97463.17
2018-11-06T00:55:13.498Z,97461.23
2018-11-06T00:57:42.969Z,97460.44
2018-11-06T01:00:13.674Z,97460.44
2018-11-06T01:02:41.925Z,97457.96
2018-11-06T01:05:11.162Z,97457.86
2018-11-06T01:07:39.418Z,97455.25
2018-11-06T01:10:08.852Z,97456.84
2018-11-06T01:12:37.348Z,97462.91
2018-11-06T01:15:06.570Z,97453.61
2018-11-06T01:17:34.745Z,97453.13
2018-11-06T01:20:02.937Z,97458.56
2018-11-06T01:22:31.839Z,97457.05
2018-11-06T01:25:01.426Z,97463.91
2018-11-06T01:27:29.605Z,97463.22
2018-11-06T01:29:57.777Z,97453.84
2018-11-06T01:32:25.941Z,97455.86
2018-11-06T01:34:54.241Z,97458.20
2018-11-06T01:37:22.529Z,97450.95
2018-11-06T01:39:50.701Z,97443.72
2018-11-06T01:42:18.962Z,97445.17
2018-11-06T01:44:47.145Z,97446.39
2018-11-06T01:47:15.316Z,97446.62
2018-11-06T01:49:43.597Z,97446.39
2018-11-06T01:52:11.764Z,97457.67
2018-11-06T01:54:40.021Z,97453.19
2018-11-06T01:57:08.204Z,97451.38
2018-11-06T01:59:36.365Z,97445.27
2018-11-06T02:02:04.540Z,97440.19
2018-11-06T02:04:32.720Z,97443.45
2018-11-06T02:07:00.886Z,97442.76
2018-11-06T02:09:29.070Z,97444.91
2018-11-06T02:11:57.255Z,97441.73
2018-11-06T02:14:25.512Z,97432.92
2018-11-06T02:16:53.810Z,97431.30
2018-11-06T02:19:22.086Z,97428.27
2018-11-06T02:21:50.276Z,97430.84
2018-11-06T02:24:18.525Z,97421.70
2018-11-06T02:26:46.706Z,97423.52
2018-11-06T02:29:14.857Z,97416.42
2018-11-06T02:31:43.038Z,97431.53
2018-11-06T02:34:11.237Z,97418.77
2018-11-06T02:36:39.483Z,97425.52
2018-11-06T02:39:08.641Z,97429.48
2018-11-06T02:41:36.832Z,97425.66
2018-11-06T02:44:05.001Z,97426.41
2018-11-06T02:46:33.209Z,97430.53
2018-11-06T02:49:01.409Z,97431.14
2018-11-06T02:51:29.661Z,97432.27
2018-11-06T02:53:58.169Z,97428.44
2018-11-06T02:56:26.382Z,97428.54
2018-11-06T02:58:54.581Z,97428.39
2018-11-06T03:01:22.762Z,97430.96
2018-11-06T03:03:51.197Z,97418.47
2018-11-06T03:06:19.625Z,97424.77
2018-11-06T03:08:47.800Z,97426.44
2018-11-06T03:11:15.970Z,97432.73
2018-11-06T03:13:44.164Z,97421.22
2018-11-06T03:16:12.323Z,97429.80
2018-11-06T03:18:40.643Z,97428.86
2018-11-06T03:21:08.808Z,97432.83
2018-11-06T03:23:37.042Z,97430.77
2018-11-06T03:26:05.343Z,97430.45
2018-11-06T03:28:33.608Z,97436.32
2018-11-06T03:31:01.774Z,97434.17
2018-11-06T03:33:29.978Z,97439.73
2018-11-06T03:35:58.138Z,97445.36
2018-11-06T03:38:26.309Z,97445.83
2018-11-06T03:40:55.221Z,97444.80
2018-11-06T03:43:23.465Z,97443.08
2018-11-06T03:45:51.629Z,97446.91
2018-11-06T03:51:10.235Z,97441.78
2018-11-06T03:53:38.480Z,97451.09
2018-11-06T03:56:07.532Z,97449.46
2018-11-06T03:58:35.701Z,97447.55
2018-11-06T04:01:03.957Z,97441.96
2018-11-06T04:03:32.112Z,97443.50
2018-11-06T04:06:00.280Z,97444.44
2018-11-06T04:08:28.452Z,97447.33
2018-11-06T04:10:56.639Z,97446.95
2018-11-06T04:13:24.877Z,97446.48
2018-11-06T04:15:53.275Z,97444.20
2018-11-06T04:18:21.458Z,97441.44
2018-11-06T04:20:49.646Z,97447.95
2018-11-06T04:23:17.905Z,97447.63
2018-11-06T04:25:46.060Z,97446.61
2018-11-06T04:28:14.269Z,97445.58
2018-11-06T04:30:42.542Z,97441.97
2018-11-06T04:33:10.715Z,97447.69
2018-11-06T04:35:38.883Z,97440.80
2018-11-06T04:38:07.172Z,97437.71
2018-11-06T04:40:35.338Z,97428.90
2018-11-06T04:43:03.520Z,97431.19
2018-11-06T04:45:31.794Z,97438.91
2018-11-06T04:47:59.950Z,97435.89
2018-11-06T04:50:28.122Z,97432.16
2018-11-06T04:52:56.294Z,97437.80
2018-11-06T04:55:25.094Z,97441.29
2018-11-06T04:57:53.270Z,97442.02
2018-11-06T05:00:21.558Z,97438.94
2018-11-06T05:02:50.158Z,97435.66
2018-11-06T05:05:18.350Z,97434.30
2018-11-06T05:07:46.590Z,97433.59
2018-11-06T05:10:15.329Z,97440.41
2018-11-06T05:12:44.229Z,97435.19
2018-11-06T05:15:14.471Z,97441.41
2018-11-06T05:17:42.661Z,97441.81
2018-11-06T05:20:13.221Z,97443.25
2018-11-06T05:22:41.513Z,97438.17
2018-11-06T05:25:09.989Z,97441.25
2018-11-06T05:27:38.600Z,97441.89
2018-11-06T05:30:07.655Z,97439.74
2018-11-06T05:32:36.126Z,97439.98
2018-11-06T05:35:05.345Z,97448.87
2018-11-06T05:37:33.577Z,97446.03
2018-11-06T05:40:13.230Z,97434.58
2018-11-06T05:42:41.456Z,97438.80
2018-11-06T05:45:09.624Z,97436.42
2018-11-06T05:47:37.874Z,97437.60
2018-11-06T05:50:06.078Z,97443.00
2018-11-06T05:52:34.380Z,97443.55
2018-11-06T05:55:02.633Z,97449.52
2018-11-06T05:57:30.773Z,97447.20
2018-11-06T06:00:05.309Z,97454.42
2018-11-06T06:02:33.545Z,97459.35
2018-11-06T06:05:01.860Z,97457.45
2018-11-06T06:07:30.450Z,97463.95
2018-11-06T06:09:58.671Z,97461.41
2018-11-06T06:12:26.861Z,97458.33
2018-11-06T06:14:55.235Z,97454.98
2018-11-06T06:17:23.519Z,97452.91
2018-11-06T06:19:52.277Z,97451.16
2018-11-06T06:22:20.529Z,97453.91
2018-11-06T06:24:49.529Z,97449.28
2018-11-06T06:27:18.009Z,97452.09
2018-11-06T06:29:46.593Z,97460.17
2018-11-06T06:32:14.809Z,97451.70
2018-11-06T06:34:43.147Z,97451.20
2018-11-06T06:37:11.257Z,97453.80
2018-11-06T06:39:39.429Z,97449.70
2018-11-06T06:42:07.864Z,97447.97
2018-11-06T06:44:36.422Z,97455.37
2018-11-06T06:47:04.654Z,97465.25
2018-11-06T06:49:32.825Z,97453.91
2018-11-06T06:52:01.000Z,97455.06
2018-11-06T06:54:29.383Z,97458.20
2018-11-06T06:56:57.469Z,97466.85
2018-11-06T06:59:25.645Z,97469.95
2018-11-06T07:01:53.829Z,97469.45
2018-11-06T07:04:22.098Z,97470.86
2018-11-06T07:06:50.389Z,97475.53
2018-11-06T07:09:18.576Z,97479.16
2018-11-06T07:11:47.023Z,97480.91
2018-11-06T07:14:15.229Z,97468.84
2018-11-06T07:16:43.393Z,97468.52
2018-11-06T07:19:11.878Z,97467.53
2018-11-06T07:21:40.026Z,97474.45
2018-11-06T07:24:08.163Z,97474.06
2018-11-06T07:26:36.334Z,97482.67
2018-11-06T07:29:04.673Z,97475.14
2018-11-06T07:31:32.924Z,97481.40
2018-11-06T07:34:01.093Z,97480.08
2018-11-06T07:36:29.288Z,97471.48
2018-11-06T07:38:57.451Z,97476.56
2018-11-06T07:41:25.646Z,97469.87
2018-11-06T07:43:53.864Z,97470.79
2018-11-06T07:46:22.085Z,97468.73
2018-11-06T07:48:50.244Z,97465.67
2018-11-06T07:51:18.413Z,97468.91
2018-11-06T07:53:46.865Z,97459.14
2018-11-06T07:56:15.111Z,97465.00
2018-11-06T07:58:43.277Z,97465.73
2018-11-06T08:01:11.452Z,97463.73
2018-11-06T08:03:39.614Z,97455.63
2018-11-06T08:06:07.914Z,97455.64
2018-11-06T08:08:36.077Z,97450.39
2018-11-06T08:11:04.337Z,97443.28
2018-11-06T08:13:32.509Z,97445.88
2018-11-06T08:16:00.679Z,97447.87
2018-11-06T08:18:29.113Z,97444.05
2018-11-06T08:20:57.295Z,97432.11
2018-11-06T08:23:25.453Z,97427.99
2018-11-06T08:25:53.682Z,97428.28
2018-11-06T08:28:21.860Z,97425.87
2018-11-06T08:30:50.500Z,97424.20
2018-11-06T08:33:18.501Z,97412.34
2018-11-06T08:35:46.677Z,97417.81
2018-11-06T08:38:14.857Z,97412.18
2018-11-06T08:40:43.001Z,97412.14
2018-11-06T08:43:11.252Z,97411.27
2018-11-06T08:45:39.410Z,97399.86
2018-11-06T08:48:07.667Z,97404.06
2018-11-06T08:50:35.840Z,97400.61
2018-11-06T08:53:04.006Z,97398.86
2018-11-06T08:55:32.176Z,97398.95
2018-11-06T08:58:00.398Z,97395.44
2018-11-06T09:00:28.562Z,97387.14
2018-11-06T09:02:56.738Z,97391.43
2018-11-06T09:05:24.920Z,97386.55
2018-11-06T09:07:53.067Z,97387.03
2018-11-06T09:10:21.232Z,97384.74
2018-11-06T09:12:49.642Z,97389.88
2018-11-06T09:15:18.041Z,97382.67
2018-11-06T09:17:46.309Z,97381.21
2018-11-06T09:20:15.733Z,97384.11
2018-11-06T09:22:43.953Z,97376.06
2018-11-06T09:25:13.721Z,97375.45
2018-11-06T09:27:42.609Z,97377.46
2018-11-06T09:30:13.331Z,97371.34
2018-11-06T09:32:41.548Z,97374.96
2018-11-06T09:35:11.055Z,97375.98
2018-11-06T09:37:39.701Z,97373.73
2018-11-06T09:40:09.406Z,97368.30
2018-11-06T09:42:37.876Z,97368.69
2018-11-06T09:45:06.452Z,97361.84
2018-11-06T09:47:34.541Z,97358.48
2018-11-06T09:50:02.796Z,97364.37
2018-11-06T09:52:30.962Z,97358.41
2018-11-06T09:54:59.213Z,97354.86
2018-11-06T09:57:27.380Z,97350.34
2018-11-06T09:59:55.558Z,97346.20
2018-11-06T10:02:23.706Z,97338.11
2018-11-06T10:04:51.911Z,97343.56
2018-11-06T10:07:20.363Z,97335.73
2018-11-06T10:09:48.297Z,97333.19
2018-11-06T10:12:16.549Z,97325.45
2018-11-06T10:14:44.810Z,97323.59
2018-11-06T10:17:12.985Z,97323.40
2018-11-06T10:19:41.161Z,97321.09
2018-11-06T10:22:09.441Z,97314.38
2018-11-06T10:24:37.717Z,97305.30
2018-11-06T10:27:05.947Z,97307.67
2018-11-06T10:29:34.250Z,97305.22
2018-11-06T10:32:02.482Z,97315.06
2018-11-06T10:34:30.741Z,97304.38
2018-11-06T10:36:59.026Z,97304.11
2018-11-06T10:39:27.233Z,97303.44
2018-11-06T10:41:55.434Z,97304.06
2018-11-06T10:44:23.609Z,97302.79
2018-11-06T10:46:51.788Z,97303.23
2018-11-06T10:49:19.976Z,97296.02
2018-11-06T10:51:48.202Z,97294.26
2018-11-06T10:54:16.425Z,97288.28
2018-11-06T10:56:44.618Z,97288.45
2018-11-06T10:59:12.854Z,97281.47
2018-11-06T11:01:46.404Z,97285.44
2018-11-06T11:04:17.756Z,97285.84
2018-11-06T11:06:46.983Z,97277.19
2018-11-06T11:09:15.136Z,97274.40
2018-11-06T11:11:43.339Z,97264.63
2018-11-06T11:14:11.536Z,97265.06
2018-11-06T11:16:39.704Z,97263.50
2018-11-06T11:19:07.871Z,97265.01
2018-11-06T11:21:36.077Z,97261.06
2018-11-06T11:24:04.353Z,97259.29
2018-11-06T11:26:32.538Z,97260.22
2018-11-06T11:29:00.814Z,97257.63
2018-11-06T11:31:29.005Z,97256.83
2018-11-06T11:33:57.300Z,97242.65
2018-11-06T11:36:25.421Z,97241.36
2018-11-06T11:38:53.589Z,97241.02
2018-11-06T11:41:22.093Z,97233.18
2018-11-06T11:43:50.353Z,97233.42
2018-11-06T11:46:18.605Z,97235.63
2018-11-06T11:48:46.803Z,97229.19
2018-11-06T11:51:14.972Z,97227.59
2018-11-06T11:53:43.138Z,97226.75
2018-11-06T11:56:11.631Z,97223.73
2018-11-06T11:58:39.918Z,97220.01
2018-11-06T12:01:08.480Z,97222.55
2018-11-06T12:03:36.657Z,97222.25
2018-11-06T12:06:04.978Z,97219.95
2018-11-06T12:08:33.138Z,97216.17
2018-11-06T12:11:01.389Z,97208.30
2018-11-06T12:13:29.589Z,97202.06
2018-11-06T12:15:57.835Z,97206.52
2018-11-06T12:18:26.113Z,97205.39
2018-11-06T12:20:54.197Z,97193.99
2018-11-06T12:23:22.456Z,97200.00
2018-11-06T12:25:50.819Z,97194.67
2018-11-06T12:28:18.857Z,97191.69
2018-11-06T12:30:47.088Z,97190.55
2018-11-06T12:33:15.467Z,97190.41
2018-11-06T12:35:43.697Z,97190.02
2018-11-06T12:38:11.871Z,97182.83
2018-11-06T12:40:40.025Z,97177.06
2018-11-06T12:43:08.248Z,97178.54
2018-11-06T12:45:36.764Z,97178.92
2018-11-06T12:48:05.321Z,97176.83
2018-11-06T12:50:33.529Z,97171.27
2018-11-06T12:53:01.823Z,97171.41
2018-11-06T12:55:30.271Z,97170.88
2018-11-06T12:57:58.452Z,97161.04
2018-11-06T13:00:26.703Z,97158.25
2018-11-06T13:02:54.960Z,97161.23
2018-11-06T13:05:23.169Z,97159.81
2018-11-06T13:07:51.446Z,97152.45
2018-11-06T13:10:19.636Z,97146.18
2018-11-06T13:12:47.849Z,97158.87
2018-11-06T13:15:17.488Z,97147.52
2018-11-06T13:17:44.242Z,97147.91
2018-11-06T13:20:14.537Z,97146.03
2018-11-06T13:22:43.511Z,97147.52
2018-11-06T13:25:11.706Z,97142.27
2018-11-06T13:27:40.846Z,97150.19
2018-11-06T13:30:12.732Z,97153.45
2018-11-06T13:32:41.659Z,97147.80
2018-11-06T13:35:10.117Z,97145.69
2018-11-06T13:37:38.325Z,97137.29
2018-11-06T13:40:08.839Z,97136.66
2018-11-06T13:42:37.154Z,97140.51
2018-11-06T13:45:07.037Z,97132.03
2018-11-06T13:47:35.149Z,97138.19
2018-11-06T13:50:03.321Z,97127.80
2018-11-06T13:52:31.477Z,97119.84
2018-11-06T13:54:59.944Z,97120.33
2018-11-06T13:57:28.145Z,97118.66
2018-11-06T13:59:56.399Z,97117.12
2018-11-06T14:02:24.566Z,97119.34
2018-11-06T14:04:52.748Z,97118.59
2018-11-06T14:07:21.091Z,97118.05
2018-11-06T14:09:49.264Z,97117.98
2018-11-06T14:12:17.676Z,97117.16
2018-11-06T14:14:46.055Z,97120.03
2018-11-06T14:17:14.252Z,97118.44
2018-11-06T14:19:42.450Z,97119.59
2018-11-06T14:22:10.692Z,97114.19
2018-11-06T14:24:38.906Z,97113.55
2018-11-06T14:27:07.209Z,97123.36
2018-11-06T14:29:37.440Z,97119.74
2018-11-06T14:32:05.952Z,97126.33
2018-11-06T14:34:34.208Z,97131.23
2018-11-06T14:37:02.424Z,97130.13
2018-11-06T14:39:30.803Z,97133.50
2018-11-06T14:41:58.937Z,97134.23
2018-11-06T14:44:27.129Z,97139.72
2018-11-06T14:46:55.631Z,97133.51
2018-11-06T14:49:23.856Z,97137.72
2018-11-06T14:51:51.945Z,97136.40
2018-11-06T14:54:20.121Z,97142.47
2018-11-06T14:56:48.285Z,97136.16
2018-11-06T14:59:16.626Z,97135.13
2018-11-06T15:01:44.925Z,97131.83
2018-11-06T15:04:13.127Z,97132.66
2018-11-06T15:06:41.527Z,97133.27
2018-11-06T15:09:09.948Z,97127.16
2018-11-06T15:11:38.622Z,97126.83
2018-11-06T15:14:07.508Z,97129.09
2018-11-06T15:16:35.904Z,97127.82
2018-11-06T15:19:04.092Z,97132.89
2018-11-06T15:21:32.302Z,97130.77
2018-11-06T15:24:00.530Z,97139.23
2018-11-06T15:26:28.707Z,97139.26
2018-11-06T15:28:56.910Z,97129.95
2018-11-06T15:31:25.086Z,97141.16
2018-11-06T15:33:53.255Z,97134.17
2018-11-06T15:36:21.448Z,97139.80
2018-11-06T15:38:49.721Z,97137.36
2018-11-06T15:41:18.087Z,97141.16
2018-11-06T15:43:46.145Z,97149.64
2018-11-06T15:46:14.325Z,97140.08
2018-11-06T15:48:42.658Z,97145.93
2018-11-06T15:51:10.750Z,97138.86
2018-11-06T15:53:38.931Z,97145.70
2018-11-06T15:56:07.412Z,97145.27
2018-11-06T15:58:35.581Z,97152.86
2018-11-06T16:01:03.779Z,97148.48
2018-11-06T16:03:32.311Z,97153.09
2018-11-06T16:06:00.522Z,97149.30
2018-11-06T16:08:28.799Z,97143.78
2018-11-06T16:10:56.975Z,97146.03
2018-11-06T16:13:25.159Z,97147.14
2018-11-06T16:15:53.513Z,97150.22
2018-11-06T16:18:21.713Z,97153.84
2018-11-06T16:20:49.901Z,97150.86
2018-11-06T16:23:18.177Z,97152.94
2018-11-06T16:25:46.406Z,97149.78
2018-11-06T16:28:14.626Z,97151.67
2018-11-06T16:30:42.808Z,97148.42
2018-11-06T16:33:10.963Z,97152.12
2018-11-06T16:35:39.165Z,97153.53
2018-11-06T16:38:07.438Z,97157.61
2018-11-06T16:40:35.701Z,97153.59
2018-11-06T16:43:03.906Z,97163.49
2018-11-06T16:45:32.167Z,97158.51
2018-11-06T16:48:00.361Z,97153.32
2018-11-06T16:50:28.589Z,97153.58
2018-11-06T16:52:56.786Z,97153.09
2018-11-06T16:55:24.980Z,97160.84
2018-11-06T16:57:53.137Z,97162.05
2018-11-06T17:00:23.149Z,97165.31
2018-11-06T17:02:51.429Z,97164.40
2018-11-06T17:05:19.579Z,97159.48
2018-11-06T17:07:48.137Z,97164.19
2018-11-06T17:10:16.811Z,97164.63
2018-11-06T17:12:45.030Z,97163.42
2018-11-06T17:15:18.193Z,97160.19
2018-11-06T17:17:47.319Z,97160.68
2018-11-06T17:20:15.970Z,97167.42
2018-11-06T17:22:44.155Z,97171.83
2018-11-06T17:25:13.540Z,97177.17
2018-11-06T17:27:41.740Z,97173.19
2018-11-06T17:30:11.843Z,97173.92
2018-11-06T17:32:40.580Z,97170.94
2018-11-06T17:35:10.396Z,97176.40
2018-11-06T17:37:39.233Z,97172.31
2018-11-06T17:40:10.577Z,97170.47
2018-11-06T17:42:38.914Z,97176.02
2018-11-06T17:45:09.635Z,97173.19
2018-11-06T17:47:37.954Z,97178.73
2018-11-06T17:50:07.973Z,97175.58
2018-11-06T17:52:36.216Z,97178.66
2018-11-06T17:55:04.403Z,97170.98
2018-11-06T17:57:32.550Z,97172.64
2018-11-06T18:00:00.775Z,97170.95
2018-11-06T18:02:28.957Z,97170.25
2018-11-06T18:04:57.165Z,97169.97
2018-11-06T18:07:25.333Z,97173.99
2018-11-06T18:09:53.525Z,97174.05
2018-11-06T18:12:22.305Z,97176.06
2018-11-06T18:14:50.501Z,97186.03
2018-11-06T18:17:18.816Z,97175.94
2018-11-06T18:19:47.117Z,97186.10
2018-11-06T18:22:15.315Z,97179.80
2018-11-06T18:24:43.550Z,97186.18
2018-11-06T18:27:11.741Z,97189.33
2018-11-06T18:29:39.931Z,97192.92
2018-11-06T18:32:08.167Z,97184.90
2018-11-06T18:34:36.332Z,97179.17
2018-11-06T18:37:04.505Z,97185.73
2018-11-06T18:39:32.697Z,97193.40
2018-11-06T18:42:00.858Z,97197.55
2018-11-06T18:44:29.026Z,97197.55
2018-11-06T18:46:57.222Z,97203.20
2018-11-06T18:49:25.426Z,97198.77
2018-11-06T18:51:53.628Z,97209.86
2018-11-06T18:54:21.882Z,97207.86
2018-11-06T18:56:50.205Z,97203.99
2018-11-06T18:59:18.653Z,97199.55
2018-11-06T19:01:46.928Z,97204.49
2018-11-06T19:04:15.135Z,97197.91
2018-11-06T19:06:43.369Z,97206.92
2018-11-06T19:09:12.731Z,97199.27
2018-11-06T19:11:41.517Z,97206.68
2018-11-06T19:14:10.303Z,97208.40
2018-11-06T19:16:38.581Z,97204.81
2018-11-06T19:19:07.218Z,97208.25
2018-11-06T19:21:35.361Z,97209.86
2018-11-06T19:24:03.588Z,97201.20
2018-11-06T19:26:31.767Z,97207.62
2018-11-06T19:29:00.010Z,97205.55
2018-11-06T19:31:28.489Z,97207.05
2018-11-06T19:33:56.757Z,97210.56
2018-11-06T19:36:24.963Z,97206.70
2018-11-06T19:38:53.130Z,97206.70
2018-11-06T19:41:21.309Z,97206.85
2018-11-06T19:43:49.512Z,97210.44
2018-11-06T19:46:17.721Z,97212.91
2018-11-06T19:48:46.011Z,97212.98
2018-11-06T19:51:15.148Z,97217.06
2018-11-06T19:53:43.424Z,97224.64
2018-11-06T19:56:11.558Z,97224.61
2018-11-06T19:58:39.852Z,97224.61
2018-11-06T20:01:08.409Z,97225.86
2018-11-06T20:03:36.552Z,97227.15
2018-11-06T20:06:05.173Z,97230.80
2018-11-06T20:08:33.347Z,97238.59
2018-11-06T20:11:01.535Z,97235.09
2018-11-06T20:13:29.786Z,97242.11
2018-11-06T20:15:57.981Z,97242.03
2018-11-06T20:18:26.561Z,97243.61
2018-11-06T20:20:55.581Z,97245.68
2018-11-06T20:23:23.835Z,97249.76
2018-11-06T20:25:52.003Z,97250.77
2018-11-06T20:28:20.197Z,97249.76
2018-11-06T20:30:48.519Z,97251.20
2018-11-06T20:33:16.889Z,97252.98
2018-11-06T20:35:45.076Z,97252.20
2018-11-06T20:38:13.185Z,97252.81
2018-11-06T20:40:41.461Z,97252.60
2018-11-06T20:43:09.745Z,97255.31
2018-11-06T20:45:37.885Z,97250.89
2018-11-06T20:48:06.104Z,97254.47
2018-11-06T20:50:34.377Z,97252.90
2018-11-06T20:53:02.761Z,97259.20
2018-11-06T20:55:30.943Z,97260.81
2018-11-06T20:57:59.511Z,97263.03
2018-11-06T21:00:28.764Z,97256.16
2018-11-06T21:02:58.404Z,97254.44
2018-11-06T21:05:26.659Z,97262.81
2018-11-06T21:07:54.862Z,97262.48
2018-11-06T21:10:25.430Z,97259.44
2018-11-06T21:12:53.669Z,97264.17
2018-11-06T21:15:23.039Z,97266.18
2018-11-06T21:17:51.647Z,97271.98
2018-11-06T21:20:19.931Z,97272.20
2018-11-06T21:22:48.155Z,97278.72
2018-11-06T21:25:16.465Z,97274.63
2018-11-06T21:27:45.014Z,97278.28
2018-11-06T21:30:15.343Z,97279.58
2018-11-06T21:32:44.899Z,97281.66
2018-11-06T21:35:13.101Z,97276.78
2018-11-06T21:37:41.572Z,97278.64
2018-11-06T21:40:13.789Z,97285.16
2018-11-06T21:42:42.765Z,97294.00
2018-11-06T21:45:12.187Z,97284.91
2018-11-06T21:47:41.205Z,97279.81
2018-11-06T21:50:10.585Z,97285.18
2018-11-06T21:52:38.783Z,97292.83
2018-11-06T21:55:08.130Z,97296.23
2018-11-06T21:57:36.359Z,97302.03
2018-11-06T22:00:05.071Z,97301.88
2018-11-06T22:02:33.212Z,97308.70
2018-11-06T22:05:01.496Z,97306.90
2018-11-06T22:07:29.685Z,97306.33
2018-11-06T22:09:57.844Z,97313.19
2018-11-06T22:12:26.143Z,97316.32
2018-11-06T22:14:54.360Z,97339.97
2018-11-06T22:17:22.558Z,97359.35
2018-11-06T22:19:50.843Z,97364.51
2018-11-06T22:22:19.062Z,97372.54
2018-11-06T22:24:47.190Z,97372.54
2018-11-06T22:27:15.478Z,97367.17
2018-11-06T22:29:43.633Z,97349.14
2018-11-06T22:32:11.822Z,97340.77
2018-11-06T22:34:39.999Z,97329.78
2018-11-06T22:37:08.258Z,97323.61
2018-11-06T22:39:36.421Z,97330.09
2018-11-06T22:42:04.926Z,97319.31
2018-11-06T22:44:33.184Z,97319.44
2018-11-06T22:47:01.357Z,97324.31
2018-11-06T22:49:29.665Z,97335.56
2018-11-06T22:51:57.909Z,97346.13
2018-11-06T22:54:26.421Z,97345.16
2018-11-06T22:56:54.683Z,97353.42
2018-11-06T22:59:22.844Z,97357.58
2018-11-06T23:01:51.007Z,97355.17
2018-11-06T23:04:19.304Z,97352.84
2018-11-06T23:06:47.602Z,97357.57
2018-11-06T23:09:15.628Z,97371.19
2018-11-06T23:11:43.861Z,97367.75
2018-11-06T23:14:12.039Z,97373.91
2018-11-06T23:16:40.598Z,97372.56
2018-11-06T23:19:08.876Z,97382.34
2018-11-06T23:21:37.132Z,97387.89
2018-11-06T23:24:05.510Z,97386.89
2018-11-06T23:26:33.747Z,97374.80
2018-11-06T23:29:01.955Z,97390.99
2018-11-06T23:31:30.396Z,97401.85
2018-11-06T23:33:58.614Z,97405.80
2018-11-06T23:36:26.789Z,97398.33
2018-11-06T23:38:54.965Z,97420.13
2018-11-06T23:41:23.149Z,97408.48
2018-11-06T23:43:51.375Z,97413.56
2018-11-06T23:46:19.537Z,97408.11
2018-11-06T23:48:47.757Z,97417.83
2018-11-06T23:51:15.931Z,97410.03
2018-11-06T23:53:44.133Z,97418.95
2018-11-06T23:56:12.332Z,97424.13
2018-11-06T23:58:40.497Z,97423.06
